createdAt,value
2023-03-06T00:00:58.273Z,12.07
2023-03-06T00:03:27.841Z,12.75
2023-03-06T00:05:57.269Z,12.40
2023-03-06T00:08:25.802Z,11.77
2023-03-06T00:10:52.835Z,13.10
2023-03-06T00:13:20.023Z,12.05
2023-03-06T00:15:48.221Z,13.30
2023-03-06T00:18:15.314Z,12.70
2023-03-06T00:20:43.823Z,11.60
2023-03-06T00:23:11.109Z,12.32
2023-03-06T00:25:41.612Z,13.27
2023-03-06T00:28:08.397Z,11.75
2023-03-06T00:30:35.369Z,11.60
2023-03-06T00:33:02.136Z,12.52
2023-03-06T00:35:28.914Z,13.13
2023-03-06T00:37:57.717Z,12.50
2023-03-06T00:40:24.429Z,11.60
2023-03-06T00:42:51.298Z,11.45
2023-03-06T00:45:18.132Z,11.70
2023-03-06T00:47:44.921Z,11.82
2023-03-06T00:50:12.171Z,11.90
2023-03-06T00:52:39.227Z,12.07
2023-03-06T00:55:06.524Z,12.10
2023-03-06T00:57:33.361Z,13.07
2023-03-06T01:00:00.093Z,13.30
2023-03-06T01:02:26.864Z,12.00
2023-03-06T01:04:53.726Z,13.90
2023-03-06T01:07:20.462Z,12.32
2023-03-06T01:09:47.257Z,14.25
2023-03-06T01:12:14.075Z,13.02
2023-03-06T01:14:40.812Z,12.80
2023-03-06T01:17:07.726Z,12.30
2023-03-06T01:19:34.505Z,11.55
2023-03-06T01:22:01.278Z,13.18
2023-03-06T01:24:28.586Z,12.65
2023-03-06T01:26:55.284Z,12.98
2023-03-06T01:29:22.011Z,11.95
2023-03-06T01:31:48.838Z,12.05
2023-03-06T01:34:15.618Z,12.93
2023-03-06T01:36:42.382Z,12.15
2023-03-06T01:39:10.073Z,11.82
2023-03-06T01:41:36.819Z,12.88
2023-03-06T01:44:03.821Z,12.70
2023-03-06T01:46:42.462Z,14.02
2023-03-06T01:49:22.248Z,11.85
2023-03-06T01:52:00.551Z,13.30
2023-03-06T01:54:35.285Z,12.93
2023-03-06T01:57:13.685Z,12.55
2023-03-06T01:59:42.515Z,12.75
2023-03-06T02:02:11.080Z,12.30
2023-03-06T02:04:40.421Z,12.80
2023-03-06T02:07:08.651Z,13.20
2023-03-06T02:09:36.698Z,12.43
2023-03-06T02:12:08.764Z,13.18
2023-03-06T02:14:35.836Z,11.95
2023-03-06T02:17:03.337Z,12.80
2023-03-06T02:19:43.723Z,12.10
2023-03-06T02:22:10.701Z,11.23
2023-03-06T02:24:54.917Z,13.13
2023-03-06T02:27:24.094Z,13.10
2023-03-06T02:29:50.840Z,12.98
2023-03-06T02:32:17.681Z,11.90
2023-03-06T02:34:56.448Z,13.07
2023-03-06T02:37:24.852Z,11.43
2023-03-06T02:40:02.925Z,11.85
2023-03-06T02:42:29.833Z,12.10
2023-03-06T02:44:58.964Z,12.45
2023-03-06T02:47:25.813Z,11.50
2023-03-06T02:49:52.554Z,12.88
2023-03-06T02:52:19.447Z,10.88
2023-03-06T02:54:46.296Z,13.63
2023-03-06T02:57:13.056Z,12.85
2023-03-06T02:59:39.786Z,12.85
2023-03-06T03:02:06.876Z,12.25
2023-03-06T03:04:33.839Z,13.05
2023-03-06T03:07:00.627Z,11.70
2023-03-06T03:09:28.298Z,12.27
2023-03-06T03:11:55.086Z,13.27
2023-03-06T03:14:21.830Z,12.95
2023-03-06T03:16:48.582Z,12.27
2023-03-06T03:19:15.256Z,11.93
2023-03-06T03:21:42.061Z,12.20
2023-03-06T03:24:09.091Z,11.95
2023-03-06T03:26:36.007Z,13.27
2023-03-06T03:29:05.003Z,11.35
2023-03-06T03:31:32.805Z,12.93
2023-03-06T03:34:00.180Z,12.50
2023-03-06T03:36:27.543Z,12.23
2023-03-06T03:38:54.878Z,12.35
2023-03-06T03:41:21.666Z,12.73
2023-03-06T03:43:48.417Z,11.80
2023-03-06T03:46:15.277Z,12.35
2023-03-06T03:48:42.032Z,12.43
2023-03-06T03:51:11.056Z,13.27
2023-03-06T03:53:37.847Z,12.15
2023-03-06T03:56:05.387Z,11.63
2023-03-06T03:58:32.113Z,11.48
2023-03-06T04:00:58.853Z,13.27
2023-03-06T04:03:25.592Z,12.98
2023-03-06T04:05:54.426Z,13.98
2023-03-06T04:08:25.279Z,14.13
2023-03-06T04:10:53.051Z,12.98
2023-03-06T04:13:22.234Z,13.25
2023-03-06T04:15:50.203Z,12.25
2023-03-06T04:18:17.411Z,12.40
2023-03-06T04:20:45.730Z,13.32
2023-03-06T04:23:12.809Z,14.50
2023-03-06T04:25:39.924Z,13.02
2023-03-06T04:28:07.421Z,13.32
2023-03-06T04:30:34.717Z,14.10
2023-03-06T04:33:01.402Z,13.02
2023-03-06T04:35:28.172Z,12.60
2023-03-06T04:37:55.489Z,12.82
2023-03-06T04:40:27.380Z,12.40
2023-03-06T04:42:55.587Z,13.38
2023-03-06T04:45:22.785Z,12.02
2023-03-06T04:47:49.749Z,12.70
2023-03-06T04:50:17.401Z,12.98
2023-03-06T04:52:44.283Z,13.07
2023-03-06T04:55:14.250Z,14.50
2023-03-06T04:57:43.278Z,13.00
2023-03-06T05:00:18.180Z,14.85
2023-03-06T05:02:45.983Z,13.98
2023-03-06T05:05:13.414Z,13.20
2023-03-06T05:07:40.685Z,12.65
2023-03-06T05:10:10.522Z,14.18
2023-03-06T05:12:37.956Z,12.80
2023-03-06T05:15:05.477Z,13.52
2023-03-06T05:17:32.256Z,13.48
2023-03-06T05:19:59.079Z,14.95
2023-03-06T05:22:25.808Z,13.25
2023-03-06T05:24:52.654Z,14.02
2023-03-06T05:27:19.428Z,13.05
2023-03-06T05:29:46.156Z,14.23
2023-03-06T05:32:12.930Z,14.68
2023-03-06T05:34:40.102Z,15.50
2023-03-06T05:37:06.871Z,14.00
2023-03-06T05:39:33.603Z,15.32
2023-03-06T05:42:00.651Z,16.02
2023-03-06T05:44:32.408Z,14.82
2023-03-06T05:46:59.863Z,15.43
2023-03-06T05:49:31.338Z,15.27
2023-03-06T05:51:58.421Z,16.25
2023-03-06T05:54:26.232Z,15.65
2023-03-06T05:56:52.995Z,14.75
2023-03-06T05:59:19.782Z,15.32
2023-03-06T06:01:46.512Z,14.80
2023-03-06T06:04:13.216Z,16.23
2023-03-06T06:06:39.996Z,15.95
2023-03-06T06:09:06.714Z,15.10
2023-03-06T06:11:33.409Z,15.45
2023-03-06T06:14:00.209Z,16.13
2023-03-06T06:16:26.997Z,15.98
2023-03-06T06:18:53.757Z,14.95
2023-03-06T06:21:20.479Z,16.52
2023-03-06T06:23:47.160Z,15.77
2023-03-06T06:26:13.928Z,17.40
2023-03-06T06:28:40.692Z,15.90
2023-03-06T06:31:12.302Z,16.58
2023-03-06T06:33:39.932Z,15.85
2023-03-06T06:36:20.748Z,16.92
2023-03-06T06:38:47.861Z,14.65
2023-03-06T06:44:08.542Z,14.82
2023-03-06T06:49:22.976Z,16.00
2023-03-06T06:51:49.788Z,15.50
2023-03-06T06:54:16.504Z,16.77
2023-03-06T06:56:43.299Z,15.63
2023-03-06T06:59:16.439Z,15.50
2023-03-06T07:01:44.188Z,14.70
2023-03-06T07:04:14.404Z,17.80
2023-03-06T07:06:42.126Z,20.10
2023-03-06T07:09:09.166Z,22.13
2023-03-06T07:11:38.387Z,18.52
2023-03-06T07:14:05.587Z,16.40
2023-03-06T07:16:32.256Z,16.30
2023-03-06T07:19:01.430Z,17.67
2023-03-06T07:21:28.249Z,15.48
2023-03-06T07:23:57.269Z,16.25
2023-03-06T07:26:25.494Z,16.55
2023-03-06T07:28:53.663Z,14.68
2023-03-06T07:31:22.659Z,16.58
2023-03-06T07:33:50.873Z,16.42
2023-03-06T07:36:18.064Z,17.10
2023-03-06T07:38:45.430Z,15.55
2023-03-06T07:41:13.845Z,16.02
2023-03-06T07:43:41.422Z,15.68
2023-03-06T07:46:09.061Z,14.80
2023-03-06T07:48:37.417Z,15.82
2023-03-06T07:51:06.976Z,15.85
2023-03-06T07:53:34.165Z,15.30
2023-03-06T07:56:01.230Z,15.70
2023-03-06T07:58:28.024Z,14.73
2023-03-06T08:00:54.816Z,14.13
2023-03-06T08:03:21.552Z,14.27
2023-03-06T08:05:48.253Z,14.65
2023-03-06T08:08:15.073Z,14.57
2023-03-06T08:10:46.815Z,15.10
2023-03-06T08:13:13.508Z,15.00
2023-03-06T08:15:40.316Z,14.13
2023-03-06T08:18:07.032Z,14.52
2023-03-06T08:20:33.740Z,13.35
2023-03-06T08:23:00.532Z,13.38
2023-03-06T08:25:27.272Z,13.60
2023-03-06T08:27:54.150Z,13.25
2023-03-06T08:30:21.633Z,11.77
2023-03-06T08:32:48.443Z,13.50
2023-03-06T08:35:15.221Z,12.63
2023-03-06T08:37:42.040Z,11.57
2023-03-06T08:40:09.586Z,11.30
2023-03-06T08:42:36.276Z,12.90
2023-03-06T08:45:03.254Z,11.88
2023-03-06T08:47:29.941Z,14.60
2023-03-06T08:49:57.173Z,12.88
2023-03-06T08:52:24.958Z,10.45
2023-03-06T08:54:51.629Z,11.93
2023-03-06T08:57:18.463Z,11.73
2023-03-06T08:59:45.178Z,9.73
2023-03-06T09:02:15.103Z,10.73
2023-03-06T09:04:42.024Z,10.48
2023-03-06T09:07:08.835Z,10.20
2023-03-06T09:09:35.562Z,10.10
2023-03-06T09:12:02.486Z,10.10
2023-03-06T09:14:29.396Z,8.82
2023-03-06T09:16:56.163Z,9.80
2023-03-06T09:19:22.963Z,9.63
2023-03-06T09:21:49.761Z,9.23
2023-03-06T09:24:16.520Z,7.97
2023-03-06T09:26:46.448Z,9.60
2023-03-06T09:29:16.341Z,8.35
2023-03-06T09:31:43.621Z,9.45
2023-03-06T09:34:10.495Z,22.17
2023-03-06T09:36:49.521Z,8.55
2023-03-06T09:39:22.039Z,7.13
2023-03-06T09:41:50.785Z,7.90
2023-03-06T09:44:22.467Z,7.80
2023-03-06T09:47:19.982Z,8.63
2023-03-06T09:49:52.487Z,7.95
2023-03-06T09:52:43.851Z,7.10
2023-03-06T09:55:18.373Z,8.57
2023-03-06T09:58:14.023Z,7.10
2023-03-06T10:00:43.866Z,6.55
2023-03-06T10:03:33.034Z,9.90
2023-03-06T10:06:05.368Z,8.05
2023-03-06T10:09:00.641Z,7.30
2023-03-06T10:12:04.846Z,7.93
2023-03-06T10:14:49.181Z,7.50
2023-03-06T10:17:22.194Z,7.15
2023-03-06T10:19:49.795Z,8.20
2023-03-06T10:23:00.549Z,7.68
2023-03-06T10:25:37.948Z,7.40
2023-03-06T10:28:20.479Z,6.95
2023-03-06T10:31:27.876Z,8.60
2023-03-06T10:33:57.987Z,7.13
2023-03-06T10:36:29.722Z,7.97
2023-03-06T10:38:58.842Z,7.60
2023-03-06T10:41:35.181Z,6.75
2023-03-06T10:44:04.953Z,7.57
2023-03-06T10:46:37.211Z,7.82
2023-03-06T10:49:30.135Z,7.95
2023-03-06T10:52:14.744Z,7.90
2023-03-06T10:54:44.396Z,7.07
2023-03-06T10:57:29.712Z,8.40
2023-03-06T11:00:06.686Z,8.25
2023-03-06T11:02:37.201Z,6.65
2023-03-06T11:05:05.424Z,7.18
2023-03-06T11:07:36.896Z,8.68
2023-03-06T11:10:20.151Z,8.10
2023-03-06T11:13:21.266Z,7.78
2023-03-06T11:16:21.095Z,7.65
2023-03-06T11:19:01.318Z,7.20
2023-03-06T11:21:37.125Z,8.40
2023-03-06T11:24:19.894Z,8.95
2023-03-06T11:26:57.457Z,7.88
2023-03-06T11:29:38.677Z,7.80
2023-03-06T11:32:23.010Z,9.52
2023-03-06T11:34:56.652Z,8.50
2023-03-06T11:37:32.635Z,9.27
2023-03-06T11:40:11.225Z,10.02
2023-03-06T11:42:51.514Z,9.13
2023-03-06T11:45:34.714Z,9.23
2023-03-06T11:48:23.160Z,10.40
2023-03-06T11:50:52.736Z,9.88
2023-03-06T11:53:23.152Z,9.73
2023-03-06T11:55:55.019Z,10.57
2023-03-06T11:58:58.762Z,11.88
2023-03-06T12:01:37.318Z,11.23
2023-03-06T12:04:29.744Z,10.85
2023-03-06T12:06:59.447Z,11.80
2023-03-06T12:09:30.632Z,9.60
2023-03-06T12:12:29.059Z,11.32
2023-03-06T12:14:55.728Z,11.23
2023-03-06T12:17:58.291Z,10.93
2023-03-06T12:20:39.720Z,8.95
2023-03-06T12:23:43.756Z,11.40
2023-03-06T12:26:31.478Z,9.70
2023-03-06T12:29:28.539Z,11.05
2023-03-06T12:32:14.153Z,10.50
2023-03-06T12:34:58.749Z,10.45
2023-03-06T12:37:38.026Z,11.15
2023-03-06T12:40:16.782Z,11.95
2023-03-06T12:42:55.870Z,11.43
2023-03-06T12:45:38.438Z,10.27
2023-03-06T12:48:14.814Z,11.70
2023-03-06T12:50:44.491Z,10.98
2023-03-06T12:53:23.290Z,10.40
2023-03-06T12:55:51.431Z,9.63
2023-03-06T12:58:30.237Z,10.20
2023-03-06T13:01:09.553Z,9.68
2023-03-06T13:03:39.207Z,9.55
2023-03-06T13:06:20.734Z,10.65
2023-03-06T13:09:05.881Z,8.50
2023-03-06T13:12:15.387Z,9.38
2023-03-06T13:14:48.635Z,8.38
2023-03-06T13:17:27.948Z,7.78
2023-03-06T13:20:13.719Z,9.82
2023-03-06T13:22:45.195Z,8.73
2023-03-06T13:25:20.654Z,7.75
2023-03-06T13:27:53.425Z,7.93
2023-03-06T13:30:44.371Z,6.85
2023-03-06T13:33:33.007Z,7.97
2023-03-06T13:36:19.784Z,8.27
2023-03-06T13:38:49.613Z,7.90
2023-03-06T13:41:30.967Z,6.80
2023-03-06T13:44:25.629Z,7.55
2023-03-06T13:47:05.818Z,7.57
2023-03-06T13:49:34.053Z,7.50
2023-03-06T13:52:10.499Z,7.60
2023-03-06T13:54:49.087Z,7.65
2023-03-06T13:58:04.021Z,7.68
2023-03-06T14:00:57.528Z,7.72
2023-03-06T14:03:51.093Z,7.72
2023-03-06T14:06:37.145Z,8.32
2023-03-06T14:09:15.713Z,8.63
2023-03-06T14:11:50.452Z,7.05
2023-03-06T14:14:17.956Z,6.97
2023-03-06T14:16:50.842Z,7.55
2023-03-06T14:19:19.506Z,6.60
2023-03-06T14:21:51.060Z,8.48
2023-03-06T14:24:20.156Z,7.00
2023-03-06T14:26:50.052Z,7.47
2023-03-06T14:29:21.181Z,8.13
2023-03-06T14:31:51.218Z,6.93
2023-03-06T14:34:29.640Z,8.02
2023-03-06T14:37:01.424Z,6.60
2023-03-06T14:39:40.159Z,7.40
2023-03-06T14:42:09.147Z,8.52
2023-03-06T14:44:35.939Z,7.50
2023-03-06T14:47:22.042Z,8.52
2023-03-06T14:50:08.772Z,7.22
2023-03-06T14:52:36.347Z,7.53
2023-03-06T14:55:03.278Z,8.52
2023-03-06T14:57:30.133Z,8.15
2023-03-06T14:59:59.016Z,9.90
2023-03-06T15:02:32.865Z,8.60
2023-03-06T15:05:11.189Z,8.35
2023-03-06T15:07:38.196Z,7.63
2023-03-06T15:10:10.370Z,8.30
2023-03-06T15:12:38.935Z,7.32
2023-03-06T15:15:10.367Z,7.70
2023-03-06T15:17:48.008Z,7.95
2023-03-06T15:20:41.465Z,9.55
2023-03-06T15:23:22.378Z,7.53
2023-03-06T15:26:00.445Z,8.68
2023-03-06T15:28:38.620Z,7.60
2023-03-06T15:31:11.189Z,8.52
2023-03-06T15:33:38.222Z,8.73
2023-03-06T15:36:06.817Z,10.15
2023-03-06T15:38:39.342Z,8.95
2023-03-06T15:41:19.519Z,11.60
2023-03-06T15:43:46.319Z,8.82
2023-03-06T15:46:13.694Z,9.07
2023-03-06T15:48:50.852Z,8.90
2023-03-06T15:51:17.601Z,10.15
2023-03-06T15:53:44.345Z,8.05
2023-03-06T15:56:12.395Z,8.38
2023-03-06T15:58:40.319Z,8.98
2023-03-06T16:01:08.103Z,8.90
2023-03-06T16:03:34.888Z,9.93
2023-03-06T16:06:01.569Z,9.65
2023-03-06T16:08:28.855Z,9.63
2023-03-06T16:10:55.555Z,8.93
2023-03-06T16:13:27.806Z,9.00
2023-03-06T16:15:54.881Z,9.35
2023-03-06T16:18:21.653Z,9.75
2023-03-06T16:20:49.269Z,8.93
2023-03-06T16:23:16.469Z,8.75
2023-03-06T16:25:48.507Z,8.57
2023-03-06T16:28:16.485Z,8.40
2023-03-06T16:30:44.519Z,7.70
2023-03-06T16:33:12.573Z,11.50
2023-03-06T16:35:39.810Z,10.60
2023-03-06T16:38:06.929Z,11.25
2023-03-06T16:40:38.365Z,8.88
2023-03-06T16:43:05.633Z,10.60
2023-03-06T16:45:37.080Z,8.65
2023-03-06T16:48:04.270Z,9.02
2023-03-06T16:50:36.242Z,8.77
2023-03-06T16:53:04.086Z,9.55
2023-03-06T16:55:30.941Z,9.13
2023-03-06T16:57:57.692Z,10.85
2023-03-06T17:00:25.132Z,12.25
2023-03-06T17:02:52.749Z,31.77
2023-03-06T17:05:20.135Z,29.52
2023-03-06T17:07:47.302Z,18.92
2023-03-06T17:10:16.388Z,17.13
2023-03-06T17:12:43.642Z,12.30
2023-03-06T17:15:11.672Z,11.30
2023-03-06T17:17:38.466Z,11.25
2023-03-06T17:20:07.523Z,10.35
2023-03-06T17:22:35.541Z,10.18
2023-03-06T17:25:05.156Z,9.10
2023-03-06T17:27:32.201Z,9.13
2023-03-06T17:29:59.574Z,10.52
2023-03-06T17:32:27.477Z,11.75
2023-03-06T17:34:54.691Z,12.43
2023-03-06T17:37:21.526Z,13.65
2023-03-06T17:39:48.295Z,14.10
2023-03-06T17:42:15.535Z,11.15
2023-03-06T17:44:42.307Z,10.65
2023-03-06T17:47:09.050Z,11.20
2023-03-06T17:49:35.825Z,10.65
2023-03-06T17:52:06.051Z,10.77
2023-03-06T17:54:33.308Z,13.10
2023-03-06T17:57:03.241Z,10.45
2023-03-06T17:59:31.969Z,10.40
2023-03-06T18:01:59.784Z,9.23
2023-03-06T18:04:27.337Z,21.60
2023-03-06T18:06:54.127Z,10.82
2023-03-06T18:09:20.890Z,11.18
2023-03-06T18:11:47.687Z,16.23
2023-03-06T18:14:14.505Z,10.30
2023-03-06T18:16:41.499Z,10.23
2023-03-06T18:19:11.157Z,10.95
2023-03-06T18:21:39.193Z,9.90
2023-03-06T18:24:06.341Z,9.75
2023-03-06T18:26:33.153Z,9.35
2023-03-06T18:29:03.668Z,11.52
2023-03-06T18:31:34.666Z,9.38
2023-03-06T18:34:05.075Z,10.23
2023-03-06T18:36:33.174Z,10.02
2023-03-06T18:39:03.588Z,10.55
2023-03-06T18:41:31.533Z,10.50
2023-03-06T18:44:00.713Z,10.80
2023-03-06T18:46:32.699Z,9.50
2023-03-06T18:48:59.889Z,8.82
2023-03-06T18:51:26.848Z,9.43
2023-03-06T18:53:55.951Z,11.27
2023-03-06T18:56:23.034Z,9.55
2023-03-06T18:58:53.457Z,9.32
2023-03-06T19:01:20.960Z,9.13
2023-03-06T19:03:48.193Z,11.48
2023-03-06T19:06:16.974Z,10.75
2023-03-06T19:08:43.925Z,11.70
2023-03-06T19:11:15.862Z,11.35
2023-03-06T19:13:43.462Z,13.20
2023-03-06T19:16:20.427Z,11.98
2023-03-06T19:18:47.245Z,11.45
2023-03-06T19:21:19.841Z,14.68
2023-03-06T19:23:46.968Z,11.18
2023-03-06T19:26:14.342Z,10.95
2023-03-06T19:28:42.547Z,10.00
2023-03-06T19:31:19.574Z,12.95
2023-03-06T19:33:48.185Z,11.90
2023-03-06T19:36:16.265Z,10.18
2023-03-06T19:38:43.211Z,11.75
2023-03-06T19:41:13.837Z,12.40
2023-03-06T19:43:41.972Z,12.15
2023-03-06T19:46:15.029Z,11.95
2023-03-06T19:48:42.204Z,13.52
2023-03-06T19:51:09.409Z,15.32
2023-03-06T19:53:36.372Z,11.90
2023-03-06T19:56:12.205Z,11.27
2023-03-06T19:58:40.665Z,11.68
2023-03-06T20:01:10.752Z,13.23
2023-03-06T20:03:37.774Z,12.07
2023-03-06T20:06:09.259Z,13.82
2023-03-06T20:08:36.745Z,11.13
2023-03-06T20:11:04.195Z,12.02
2023-03-06T20:13:31.689Z,11.07
2023-03-06T20:16:03.170Z,11.32
2023-03-06T20:18:29.971Z,11.35
2023-03-06T20:20:58.663Z,10.75
2023-03-06T20:23:25.941Z,10.20
2023-03-06T20:25:53.033Z,11.32
2023-03-06T20:28:19.827Z,10.20
2023-03-06T20:30:46.608Z,11.20
2023-03-06T20:33:15.184Z,11.57
2023-03-06T20:35:42.837Z,13.63
2023-03-06T20:38:10.488Z,11.57
2023-03-06T20:40:39.095Z,12.85
2023-03-06T20:43:05.913Z,17.27
2023-03-06T20:45:32.773Z,14.80
2023-03-06T20:47:59.722Z,13.23
2023-03-06T20:50:27.048Z,17.50
2023-03-06T20:52:55.591Z,24.90
2023-03-06T20:55:22.772Z,15.55
2023-03-06T20:57:51.267Z,28.73
2023-03-06T21:00:19.192Z,23.92
2023-03-06T21:02:45.896Z,26.50
2023-03-06T21:05:13.001Z,10.35
2023-03-06T21:07:39.788Z,18.70
2023-03-06T21:10:07.352Z,10.30
2023-03-06T21:12:34.030Z,40.92
2023-03-06T21:15:00.868Z,24.27
2023-03-06T21:17:28.215Z,11.07
2023-03-06T21:19:54.903Z,9.30
2023-03-06T21:22:21.616Z,9.88
2023-03-06T21:24:48.339Z,9.68
2023-03-06T21:27:15.126Z,7.70
2023-03-06T21:29:41.851Z,8.82
2023-03-06T21:32:08.599Z,8.27
2023-03-06T21:34:35.364Z,8.50
2023-03-06T21:37:02.076Z,7.60
2023-03-06T21:39:28.835Z,9.00
2023-03-06T21:41:55.571Z,8.18
2023-03-06T21:44:22.450Z,8.35
2023-03-06T21:46:49.162Z,8.88
2023-03-06T21:49:15.915Z,9.85
2023-03-06T21:51:42.614Z,8.02
2023-03-06T21:54:09.729Z,8.43
2023-03-06T21:56:36.495Z,9.13
2023-03-06T21:59:03.180Z,10.13
2023-03-06T22:01:30.309Z,12.15
2023-03-06T22:03:58.455Z,9.65
2023-03-06T22:06:27.003Z,7.80
2023-03-06T22:08:55.902Z,9.00
2023-03-06T22:11:24.144Z,8.57
2023-03-06T22:13:53.222Z,9.98
2023-03-06T22:16:20.857Z,9.13
2023-03-06T22:18:50.040Z,8.43
2023-03-06T22:21:18.657Z,7.60
2023-03-06T22:23:59.209Z,7.50
2023-03-06T22:26:27.874Z,8.05
2023-03-06T22:28:54.954Z,7.57
2023-03-06T22:31:24.307Z,8.05
2023-03-06T22:33:52.463Z,8.30
2023-03-06T22:36:20.392Z,8.43
2023-03-06T22:38:47.968Z,7.20
2023-03-06T22:41:18.346Z,8.88
2023-03-06T22:43:45.133Z,7.07
2023-03-06T22:46:14.861Z,8.23
2023-03-06T22:48:42.282Z,8.35
2023-03-06T22:51:11.869Z,9.55
2023-03-06T22:53:39.022Z,7.25
2023-03-06T22:56:08.068Z,8.32
2023-03-06T22:58:37.257Z,9.35
2023-03-06T23:01:11.960Z,9.10
2023-03-06T23:03:40.652Z,8.07
2023-03-06T23:06:15.139Z,8.57
2023-03-06T23:08:42.505Z,8.73
2023-03-06T23:11:11.982Z,7.00
2023-03-06T23:13:39.050Z,7.90
2023-03-06T23:16:08.448Z,7.10
2023-03-06T23:18:36.833Z,8.15
2023-03-06T23:21:12.649Z,8.15
2023-03-06T23:23:40.132Z,8.13
2023-03-06T23:26:08.631Z,6.93
2023-03-06T23:28:35.792Z,8.48
2023-03-06T23:31:10.736Z,8.10
2023-03-06T23:33:38.775Z,7.53
2023-03-06T23:36:07.604Z,7.78
2023-03-06T23:38:34.705Z,7.45
2023-03-06T23:41:13.138Z,7.85
2023-03-06T23:43:40.281Z,8.90
2023-03-06T23:46:07.790Z,6.93
2023-03-06T23:48:36.510Z,7.38
2023-03-06T23:51:08.280Z,7.60
2023-03-06T23:53:35.617Z,7.85
2023-03-06T23:56:06.056Z,7.90
2023-03-06T23:58:33.178Z,7.45
